createdAt,value
2022-09-23T00:00:42.727Z,35.17
2022-09-23T00:03:13.103Z,21.20
2022-09-23T00:05:45.861Z,27.25
2022-09-23T00:08:15.870Z,26.60
2022-09-23T00:10:45.839Z,25.83
2022-09-23T00:13:15.843Z,24.10
2022-09-23T00:15:47.199Z,33.00
2022-09-23T00:18:18.428Z,22.30
2022-09-23T00:20:51.497Z,29.48
2022-09-23T00:23:21.909Z,33.95
2022-09-23T00:25:59.823Z,30.60
2022-09-23T00:28:30.377Z,25.63
2022-09-23T00:31:02.039Z,32.22
2022-09-23T00:33:34.847Z,32.38
2022-09-23T00:36:11.168Z,31.30
2022-09-23T00:38:41.663Z,33.60
2022-09-23T00:41:12.181Z,43.22
2022-09-23T00:43:47.662Z,31.35
2022-09-23T00:46:25.278Z,30.08
2022-09-23T00:49:01.766Z,26.60
2022-09-23T00:51:39.835Z,33.45
2022-09-23T00:54:10.234Z,29.15
2022-09-23T00:56:42.537Z,25.70
2022-09-23T00:59:14.083Z,21.65
2022-09-23T01:01:45.796Z,23.27
2022-09-23T01:04:16.162Z,25.92
2022-09-23T01:06:48.938Z,38.03
2022-09-23T01:09:19.524Z,30.95
2022-09-23T01:11:56.386Z,33.65
2022-09-23T01:14:40.683Z,34.35
2022-09-23T01:17:19.478Z,29.48
2022-09-23T01:20:16.601Z,29.98
2022-09-23T01:22:57.277Z,23.70
2022-09-23T01:26:18.019Z,28.65
2022-09-23T01:29:07.648Z,29.83
2022-09-23T01:31:49.315Z,25.40
2022-09-23T01:34:27.868Z,28.60
2022-09-23T01:37:03.210Z,19.42
2022-09-23T01:39:38.781Z,25.33
2022-09-23T01:42:20.086Z,26.50
2022-09-23T01:44:58.949Z,21.17
2022-09-23T01:47:35.695Z,21.45
2022-09-23T01:50:28.586Z,29.95
2022-09-23T01:53:03.327Z,19.63
2022-09-23T01:55:37.127Z,17.73
2022-09-23T02:00:48.703Z,19.48
2022-09-23T02:03:27.582Z,17.27
2022-09-23T02:06:01.856Z,21.20
2022-09-23T02:08:37.520Z,17.98
2022-09-23T02:11:11.555Z,21.58
2022-09-23T02:13:47.901Z,21.65
2022-09-23T02:16:25.745Z,20.13
2022-09-23T02:19:03.686Z,41.58
2022-09-23T02:21:38.760Z,22.65
2022-09-23T02:24:14.731Z,21.80
2022-09-23T02:26:53.457Z,41.83
2022-09-23T02:29:27.558Z,23.63
2022-09-23T02:32:02.929Z,23.05
2022-09-23T02:34:47.849Z,32.53
2022-09-23T02:37:26.931Z,28.55
2022-09-23T02:40:04.851Z,21.90
2022-09-23T02:42:44.819Z,20.85
2022-09-23T02:45:16.474Z,26.33
2022-09-23T02:47:52.006Z,25.90
2022-09-23T02:50:25.242Z,22.98
2022-09-23T02:52:55.591Z,21.98
2022-09-23T02:55:27.480Z,25.63
2022-09-23T02:57:57.513Z,26.02
2022-09-23T03:00:30.478Z,34.17
2022-09-23T03:03:23.240Z,32.80
2022-09-23T03:06:00.098Z,43.85
2022-09-23T03:08:45.613Z,29.42
2022-09-23T03:11:17.678Z,37.17
2022-09-23T03:14:07.332Z,30.15
2022-09-23T03:16:46.434Z,23.42
2022-09-23T03:19:26.690Z,26.33
2022-09-23T03:22:05.532Z,24.98
2022-09-23T03:24:38.335Z,27.52
2022-09-23T03:27:14.100Z,25.73
2022-09-23T03:29:48.837Z,26.35
2022-09-23T03:32:22.648Z,22.67
2022-09-23T03:37:33.161Z,23.13
2022-09-23T03:40:10.269Z,24.92
2022-09-23T03:42:41.868Z,23.00
2022-09-23T03:45:18.594Z,21.27
2022-09-23T03:47:49.724Z,22.83
2022-09-23T03:50:21.030Z,22.25
2022-09-23T03:52:54.204Z,27.08
2022-09-23T03:55:25.470Z,19.50
2022-09-23T03:57:55.762Z,19.85
2022-09-23T04:00:25.778Z,20.23
2022-09-23T04:02:57.143Z,17.38
2022-09-23T04:05:27.178Z,26.90
2022-09-23T04:07:59.973Z,16.83
2022-09-23T04:10:29.990Z,19.38
2022-09-23T04:12:59.999Z,21.55
2022-09-23T04:15:30.615Z,18.35
2022-09-23T04:18:01.347Z,17.55
2022-09-23T04:20:31.580Z,17.83
2022-09-23T04:23:04.405Z,19.42
2022-09-23T04:25:34.658Z,18.80
2022-09-23T04:28:05.449Z,18.98
2022-09-23T04:30:35.518Z,19.20
2022-09-23T04:33:06.088Z,21.30
2022-09-23T04:35:40.056Z,15.82
2022-09-23T04:38:14.645Z,24.17
2022-09-23T04:40:44.662Z,24.63
2022-09-23T04:43:14.832Z,20.05
2022-09-23T04:45:45.063Z,20.83
2022-09-23T04:48:15.619Z,18.48
2022-09-23T04:50:45.895Z,20.25
2022-09-23T04:53:19.278Z,24.20
2022-09-23T04:55:49.526Z,26.33
2022-09-23T04:58:20.643Z,30.33
2022-09-23T05:00:50.886Z,41.10
2022-09-23T05:03:21.170Z,48.78
2022-09-23T05:05:51.180Z,40.63
2022-09-23T05:08:23.994Z,40.28
2022-09-23T05:10:59.505Z,30.77
2022-09-23T05:13:30.340Z,34.08
2022-09-23T05:16:02.120Z,44.45
2022-09-23T05:18:34.948Z,41.58
2022-09-23T05:21:05.933Z,38.08
2022-09-23T05:23:38.823Z,37.78
2022-09-23T05:26:11.187Z,44.72
2022-09-23T05:28:41.982Z,31.90
2022-09-23T05:31:19.902Z,29.98
2022-09-23T05:33:52.074Z,27.35
2022-09-23T05:36:23.292Z,25.00
2022-09-23T05:38:56.684Z,28.80
2022-09-23T05:41:28.556Z,30.00
2022-09-23T05:44:00.106Z,26.83
2022-09-23T05:46:31.953Z,26.30
2022-09-23T05:49:04.365Z,22.80
2022-09-23T05:51:36.096Z,20.05
2022-09-23T05:54:09.001Z,27.42
2022-09-23T05:56:39.317Z,24.03
2022-09-23T05:59:09.466Z,18.60
2022-09-23T06:01:39.848Z,18.73
2022-09-23T06:04:11.136Z,18.63
2022-09-23T06:06:42.830Z,29.65
2022-09-23T06:09:17.812Z,25.42
2022-09-23T06:11:48.056Z,20.25
2022-09-23T06:14:18.916Z,22.73
2022-09-23T06:16:49.157Z,21.38
2022-09-23T06:19:19.371Z,24.33
2022-09-23T06:21:52.331Z,18.58
2022-09-23T06:24:30.800Z,22.17
2022-09-23T06:27:01.588Z,18.35
2022-09-23T06:29:33.306Z,14.85
2022-09-23T06:32:04.236Z,20.23
2022-09-23T06:34:46.496Z,17.83
2022-09-23T06:37:21.086Z,18.15
2022-09-23T06:39:55.043Z,17.30
2022-09-23T06:42:25.071Z,20.35
2022-09-23T06:44:55.152Z,21.95
2022-09-23T06:47:25.383Z,20.02
2022-09-23T06:49:55.521Z,18.75
2022-09-23T06:52:26.759Z,18.48
2022-09-23T06:55:00.478Z,18.60
2022-09-23T06:57:33.009Z,23.65
2022-09-23T07:00:03.424Z,20.60
2022-09-23T07:02:33.832Z,15.95
2022-09-23T07:05:04.270Z,17.23
2022-09-23T07:07:36.902Z,26.23
2022-09-23T07:10:11.395Z,17.70
2022-09-23T07:12:41.537Z,17.98
2022-09-23T07:15:13.270Z,18.75
2022-09-23T07:17:45.546Z,24.77
2022-09-23T07:20:18.297Z,18.63
2022-09-23T07:22:52.597Z,23.00
2022-09-23T07:25:26.267Z,20.75
2022-09-23T07:27:58.666Z,21.20
2022-09-23T07:30:31.840Z,20.05
2022-09-23T07:33:05.015Z,21.38
2022-09-23T07:35:44.861Z,23.02
2022-09-23T07:38:15.317Z,22.25
2022-09-23T07:40:49.541Z,19.10
2022-09-23T07:43:19.670Z,18.23
2022-09-23T07:45:50.010Z,35.78
2022-09-23T07:48:20.558Z,24.25
2022-09-23T07:50:51.516Z,24.27
2022-09-23T07:53:21.869Z,17.52
2022-09-23T07:55:59.597Z,18.30
2022-09-23T07:58:29.682Z,25.10
2022-09-23T08:01:06.132Z,14.63
2022-09-23T08:03:36.838Z,22.42
2022-09-23T08:06:09.696Z,22.60
2022-09-23T08:08:43.819Z,19.17
2022-09-23T08:11:17.858Z,24.13
2022-09-23T08:13:48.409Z,17.48
2022-09-23T08:16:18.748Z,15.27
2022-09-23T08:18:49.586Z,18.73
2022-09-23T08:21:23.506Z,22.02
2022-09-23T08:23:53.970Z,13.40
2022-09-23T08:26:27.727Z,14.93
2022-09-23T08:28:58.020Z,12.95
2022-09-23T08:31:28.425Z,19.08
2022-09-23T08:33:59.609Z,16.67
2022-09-23T08:36:30.118Z,19.48
2022-09-23T08:39:00.177Z,12.18
2022-09-23T08:41:42.080Z,13.35
2022-09-23T08:44:20.727Z,19.77
2022-09-23T08:46:56.593Z,19.08
2022-09-23T08:49:33.791Z,14.30
2022-09-23T08:52:11.713Z,15.80
2022-09-23T08:54:41.887Z,19.40
2022-09-23T08:57:53.512Z,15.27
2022-09-23T09:00:46.884Z,20.27
2022-09-23T09:03:25.439Z,17.52
2022-09-23T09:05:57.844Z,15.85
2022-09-23T09:08:34.502Z,17.67
2022-09-23T09:11:06.667Z,28.38
2022-09-23T09:13:43.751Z,19.00
2022-09-23T09:16:58.558Z,23.90
2022-09-23T09:19:55.533Z,23.83
2022-09-23T09:22:44.575Z,21.05
2022-09-23T09:25:28.784Z,20.48
2022-09-23T09:28:03.880Z,24.30
2022-09-23T09:30:41.173Z,21.98
2022-09-23T09:33:19.975Z,23.92
2022-09-23T09:36:13.789Z,21.50
2022-09-23T09:38:44.164Z,22.55
2022-09-23T09:41:18.592Z,23.38
2022-09-23T09:43:58.169Z,25.33
2022-09-23T09:46:54.896Z,19.45
2022-09-23T09:49:40.101Z,33.47
2022-09-23T09:52:33.502Z,21.00
2022-09-23T09:55:21.418Z,14.13
2022-09-23T09:57:55.603Z,20.55
2022-09-23T10:00:46.314Z,16.92
2022-09-23T10:03:40.618Z,19.52
2022-09-23T10:06:24.584Z,21.70
2022-09-23T10:09:14.654Z,11.85
2022-09-23T10:11:45.286Z,14.57
2022-09-23T10:14:20.599Z,12.88
2022-09-23T10:17:05.746Z,17.98
2022-09-23T10:19:39.393Z,19.27
2022-09-23T10:24:53.369Z,16.13
2022-09-23T10:27:31.922Z,17.20
2022-09-23T10:30:04.608Z,14.75
2022-09-23T10:32:40.203Z,15.27
2022-09-23T10:35:21.169Z,14.48
2022-09-23T10:37:57.112Z,11.80
2022-09-23T10:40:46.621Z,13.48
2022-09-23T10:43:52.812Z,12.15
2022-09-23T10:46:42.566Z,10.90
2022-09-23T10:49:52.209Z,14.23
2022-09-23T10:52:47.932Z,10.77
2022-09-23T10:55:55.424Z,10.88
2022-09-23T10:58:54.157Z,11.15
2022-09-23T11:01:37.730Z,10.43
2022-09-23T11:04:35.417Z,10.85
2022-09-23T11:07:20.980Z,5.43
2022-09-23T11:10:45.548Z,8.15
2022-09-23T11:13:29.954Z,12.45
2022-09-23T11:18:54.479Z,8.52
2022-09-23T11:21:49.119Z,8.98
2022-09-23T11:24:58.619Z,10.07
2022-09-23T11:27:43.939Z,9.13
2022-09-23T11:30:20.450Z,5.38
2022-09-23T11:33:18.508Z,5.40
2022-09-23T11:35:55.547Z,9.25
2022-09-23T11:38:34.115Z,9.32
2022-09-23T11:41:12.679Z,9.13
2022-09-23T11:43:47.836Z,10.23
2022-09-23T11:46:31.693Z,10.13
2022-09-23T11:49:10.851Z,10.57
2022-09-23T11:51:47.093Z,6.00
2022-09-23T11:54:23.553Z,8.38
2022-09-23T11:56:56.735Z,15.27
2022-09-23T11:59:40.906Z,9.23
2022-09-23T12:02:29.606Z,15.13
2022-09-23T12:05:07.007Z,11.95
2022-09-23T12:07:54.032Z,11.27
2022-09-23T12:10:25.878Z,13.55
2022-09-23T12:13:03.104Z,18.55
2022-09-23T12:15:49.374Z,16.40
2022-09-23T12:18:46.276Z,25.08
2022-09-23T12:21:50.394Z,11.55
2022-09-23T12:24:33.491Z,15.80
2022-09-23T12:27:11.280Z,12.10
2022-09-23T12:29:45.102Z,8.15
2022-09-23T12:32:21.565Z,7.72
2022-09-23T12:34:56.777Z,8.90
2022-09-23T12:37:31.541Z,21.95
2022-09-23T12:40:09.565Z,11.80
2022-09-23T12:42:46.346Z,12.73
2022-09-23T12:45:40.820Z,8.65
2022-09-23T12:48:46.999Z,11.32
2022-09-23T12:51:24.657Z,16.65
2022-09-23T12:54:17.510Z,12.90
2022-09-23T12:57:12.308Z,15.50
2022-09-23T13:00:00.773Z,18.73
2022-09-23T13:02:38.105Z,24.38
2022-09-23T13:05:34.400Z,28.17
2022-09-23T13:08:12.255Z,19.45
2022-09-23T13:10:48.601Z,22.83
2022-09-23T13:13:26.234Z,22.05
2022-09-23T13:15:57.761Z,22.40
2022-09-23T13:18:57.718Z,25.65
2022-09-23T13:22:16.011Z,27.02
2022-09-23T13:24:56.116Z,63.10
2022-09-23T13:27:31.775Z,53.05
2022-09-23T13:30:09.145Z,63.53
2022-09-23T13:32:44.059Z,55.72
2022-09-23T13:35:23.007Z,41.05
2022-09-23T13:37:54.201Z,49.80
2022-09-23T13:40:30.644Z,42.20
2022-09-23T13:43:05.371Z,38.95
2022-09-23T13:45:41.973Z,30.73
2022-09-23T13:48:16.948Z,34.05
2022-09-23T13:50:51.253Z,24.25
2022-09-23T13:53:26.716Z,28.90
2022-09-23T13:56:09.273Z,27.25
2022-09-23T13:58:39.936Z,22.65
2022-09-23T14:01:24.101Z,30.13
2022-09-23T14:03:54.709Z,17.33
2022-09-23T14:06:25.057Z,21.55
2022-09-23T14:08:55.766Z,20.77
2022-09-23T14:11:36.487Z,22.27
2022-09-23T14:14:09.827Z,28.58
2022-09-23T14:16:42.795Z,18.85
2022-09-23T14:19:21.215Z,15.48
2022-09-23T14:21:53.625Z,15.93
2022-09-23T14:24:25.903Z,15.45
2022-09-23T14:27:02.155Z,12.90
2022-09-23T14:29:36.383Z,11.90
2022-09-23T14:32:08.873Z,14.68
2022-09-23T14:34:50.648Z,12.50
2022-09-23T14:37:46.019Z,9.40
2022-09-23T14:40:20.195Z,14.93
2022-09-23T14:42:55.818Z,14.77
2022-09-23T14:45:31.053Z,35.38
2022-09-23T14:48:04.616Z,23.38
2022-09-23T14:53:41.056Z,21.75
2022-09-23T14:56:21.554Z,23.23
2022-09-23T14:58:57.879Z,25.23
2022-09-23T15:01:40.365Z,21.13
2022-09-23T15:04:20.477Z,23.83
2022-09-23T15:06:56.656Z,22.77
2022-09-23T15:09:30.379Z,23.48
2022-09-23T15:12:03.894Z,18.25
2022-09-23T15:17:32.932Z,20.45
2022-09-23T15:20:06.214Z,13.52
2022-09-23T15:22:46.160Z,17.25
2022-09-23T15:25:23.371Z,18.52
2022-09-23T15:28:03.560Z,11.90
2022-09-23T15:30:48.138Z,17.00
2022-09-23T15:33:18.803Z,13.55
2022-09-23T15:35:52.459Z,22.35
2022-09-23T15:38:23.504Z,17.75
2022-09-23T15:40:54.342Z,22.67
2022-09-23T15:43:26.887Z,20.55
2022-09-23T15:46:03.269Z,20.67
2022-09-23T15:48:42.840Z,79.85
2022-09-23T15:51:18.459Z,58.65
2022-09-23T15:53:48.929Z,54.58
2022-09-23T15:56:19.288Z,54.85
2022-09-23T15:58:50.026Z,50.92
2022-09-23T16:01:29.938Z,40.72
2022-09-23T16:04:01.536Z,45.08
2022-09-23T16:06:32.525Z,38.33
2022-09-23T16:09:03.049Z,34.35
2022-09-23T16:11:34.973Z,37.20
2022-09-23T16:14:07.921Z,31.45
2022-09-23T16:16:42.494Z,42.67
2022-09-23T16:19:13.261Z,29.30
2022-09-23T16:21:45.256Z,36.03
2022-09-23T16:24:22.520Z,43.13
2022-09-23T16:27:00.824Z,40.47
2022-09-23T16:29:31.400Z,38.53
2022-09-23T16:32:04.984Z,41.05
2022-09-23T16:37:07.553Z,54.58
2022-09-23T16:39:38.159Z,71.45
2022-09-23T16:42:08.451Z,85.07
2022-09-23T16:44:41.922Z,71.97
2022-09-23T16:47:15.864Z,81.25
2022-09-23T16:49:46.106Z,87.53
2022-09-23T16:52:17.344Z,109.18
2022-09-23T16:54:48.670Z,120.18
2022-09-23T16:57:18.962Z,118.93
2022-09-23T17:00:02.499Z,106.00
2022-09-23T17:02:47.656Z,81.70
2022-09-23T17:05:19.720Z,67.18
2022-09-23T17:07:49.982Z,62.42
2022-09-23T17:10:22.044Z,68.03
2022-09-23T17:12:56.868Z,65.95
2022-09-23T17:15:30.766Z,64.57
2022-09-23T17:18:05.277Z,81.13
2022-09-23T17:20:35.972Z,104.93
2022-09-23T17:23:08.114Z,125.05
2022-09-23T17:25:38.562Z,103.10
2022-09-23T17:28:09.061Z,119.15
2022-09-23T17:30:41.190Z,137.00
2022-09-23T17:33:16.581Z,168.65
2022-09-23T17:35:46.950Z,154.73
2022-09-23T17:38:17.273Z,147.90
2022-09-23T17:40:53.142Z,163.75
2022-09-23T17:43:25.976Z,168.00
2022-09-23T17:46:00.621Z,198.93
2022-09-23T17:48:35.051Z,199.13
2022-09-23T17:51:07.704Z,207.05
2022-09-23T17:53:40.370Z,224.25
2022-09-23T17:56:14.941Z,208.23
2022-09-23T17:58:46.586Z,193.07
2022-09-23T18:01:18.587Z,171.50
2022-09-23T18:03:56.331Z,153.15
2022-09-23T18:06:29.003Z,137.25
2022-09-23T18:09:02.125Z,119.57
2022-09-23T18:11:34.851Z,102.75
2022-09-23T18:14:06.695Z,90.07
2022-09-23T18:16:39.913Z,93.57
2022-09-23T18:19:16.299Z,87.78
2022-09-23T18:21:50.005Z,82.88
2022-09-23T18:27:04.124Z,97.05
2022-09-23T18:29:36.566Z,83.28
2022-09-23T18:32:12.110Z,77.00
2022-09-23T18:34:46.789Z,83.55
2022-09-23T18:37:17.191Z,91.73
2022-09-23T18:39:48.844Z,81.43
2022-09-23T18:42:20.506Z,84.38
2022-09-23T18:44:54.483Z,80.32
2022-09-23T18:47:36.850Z,81.78
2022-09-23T18:50:26.023Z,69.68
2022-09-23T18:52:56.220Z,103.63
2022-09-23T18:55:26.471Z,88.75
2022-09-23T18:57:56.681Z,91.65
2022-09-23T19:00:37.814Z,96.95
2022-09-23T19:03:10.101Z,95.95
2022-09-23T19:05:43.804Z,82.03
2022-09-23T19:08:15.109Z,70.28
2022-09-23T19:10:45.270Z,77.03
2022-09-23T19:13:15.490Z,64.65
2022-09-23T19:15:47.370Z,63.75
2022-09-23T19:18:21.143Z,74.70
2022-09-23T19:20:58.082Z,67.78
2022-09-23T19:23:29.276Z,65.50
2022-09-23T19:25:59.537Z,66.28
2022-09-23T19:28:29.578Z,71.28
2022-09-23T19:31:01.976Z,66.47
2022-09-23T19:33:32.418Z,59.40
2022-09-23T19:36:05.857Z,50.72
2022-09-23T19:38:36.148Z,54.83
2022-09-23T19:41:08.102Z,49.00
2022-09-23T19:43:39.393Z,49.67
2022-09-23T19:46:09.943Z,50.92
2022-09-23T19:48:40.456Z,63.40
2022-09-23T19:51:13.363Z,58.45
2022-09-23T19:53:45.835Z,80.90
2022-09-23T19:56:18.757Z,70.03
2022-09-23T19:58:52.508Z,74.47
2022-09-23T20:01:23.387Z,72.80
2022-09-23T20:03:53.490Z,72.22
2022-09-23T20:06:26.920Z,74.43
2022-09-23T20:08:57.700Z,67.93
2022-09-23T20:11:28.744Z,73.60
2022-09-23T20:14:02.295Z,72.30
2022-09-23T20:16:35.301Z,59.92
2022-09-23T20:19:06.657Z,74.67
2022-09-23T20:21:39.779Z,44.20
2022-09-23T20:24:12.127Z,46.65
2022-09-23T20:26:54.549Z,57.78
2022-09-23T20:29:24.840Z,55.97
2022-09-23T20:31:55.101Z,40.95
2022-09-23T20:34:26.347Z,41.97
2022-09-23T20:36:59.601Z,34.83
2022-09-23T20:39:31.055Z,38.97
2022-09-23T20:42:02.899Z,35.80
2022-09-23T20:44:33.945Z,37.47
2022-09-23T20:47:04.399Z,46.10
2022-09-23T20:49:34.714Z,42.65
2022-09-23T20:52:08.108Z,36.30
2022-09-23T20:54:39.266Z,45.85
2022-09-23T20:57:09.811Z,43.97
2022-09-23T20:59:40.663Z,47.55
2022-09-23T21:02:14.330Z,38.30
2022-09-23T21:04:44.540Z,30.55
2022-09-23T21:07:17.820Z,36.17
2022-09-23T21:09:48.416Z,39.63
2022-09-23T21:12:18.416Z,33.50
2022-09-23T21:14:48.720Z,31.70
2022-09-23T21:17:18.909Z,27.73
2022-09-23T21:19:49.050Z,33.72
2022-09-23T21:22:21.798Z,33.38
2022-09-23T21:25:26.245Z,33.50
2022-09-23T21:27:42.422Z,37.67
2022-09-23T21:30:15.035Z,30.58
2022-09-23T21:32:45.795Z,39.08
2022-09-23T21:35:19.032Z,34.35
2022-09-23T21:37:51.993Z,37.17
2022-09-23T21:40:49.366Z,37.70
2022-09-23T21:43:19.915Z,34.60
2022-09-23T21:45:50.924Z,51.25
2022-09-23T21:48:22.038Z,36.10
2022-09-23T21:50:58.285Z,37.10
2022-09-23T21:53:32.816Z,33.92
2022-09-23T21:56:08.773Z,35.90
2022-09-23T21:58:40.982Z,36.45
2022-09-23T22:01:13.364Z,38.65
2022-09-23T22:03:44.249Z,42.47
2022-09-23T22:06:20.595Z,40.88
2022-09-23T22:08:55.270Z,44.80
2022-09-23T22:11:39.655Z,46.35
2022-09-23T22:14:13.163Z,53.80
2022-09-23T22:16:43.593Z,43.58
2022-09-23T22:19:15.763Z,45.20
2022-09-23T22:21:49.538Z,53.05
2022-09-23T22:24:22.921Z,47.35
2022-09-23T22:26:53.668Z,59.13
2022-09-23T22:29:36.206Z,48.90
2022-09-23T22:32:21.424Z,57.78
2022-09-23T22:34:52.980Z,45.00
2022-09-23T22:37:27.259Z,48.15
2022-09-23T22:40:00.223Z,50.58
2022-09-23T22:42:31.139Z,48.07
2022-09-23T22:45:01.497Z,46.35
2022-09-23T22:47:31.863Z,44.45
2022-09-23T22:50:02.028Z,50.55
2022-09-23T22:52:32.074Z,42.78
2022-09-23T22:55:04.895Z,42.63
2022-09-23T22:57:34.969Z,44.63
2022-09-23T23:00:05.877Z,47.85
2022-09-23T23:02:36.231Z,39.13
2022-09-23T23:05:06.849Z,46.78
2022-09-23T23:07:37.758Z,53.47
2022-09-23T23:10:12.008Z,42.38
2022-09-23T23:12:42.113Z,51.17
2022-09-23T23:15:14.966Z,45.72
2022-09-23T23:17:45.233Z,49.00
2022-09-23T23:20:15.498Z,49.70
2022-09-23T23:22:45.665Z,47.72
2022-09-23T23:25:18.640Z,44.50
2022-09-23T23:27:48.945Z,48.87
2022-09-23T23:30:19.362Z,47.75
2022-09-23T23:32:49.579Z,40.05
2022-09-23T23:35:20.278Z,38.40
2022-09-23T23:37:50.474Z,42.40
2022-09-23T23:40:23.613Z,45.17
2022-09-23T23:42:53.927Z,45.13
2022-09-23T23:45:26.527Z,57.05
2022-09-23T23:47:56.631Z,46.30
2022-09-23T23:50:27.208Z,42.35
2022-09-23T23:52:57.270Z,47.63
2022-09-23T23:55:30.212Z,43.85
2022-09-23T23:58:03.524Z,54.90
